createdAt,value
2023-05-14T00:00:46.332Z,1645.00
2023-05-14T00:01:46.363Z,1633.00
2023-05-14T00:02:46.482Z,1616.00
2023-05-14T00:03:46.482Z,1599.00
2023-05-14T00:04:46.458Z,1565.00
2023-05-14T00:05:46.467Z,1570.00
2023-05-14T00:06:46.509Z,1543.00
2023-05-14T00:07:46.500Z,1533.00
2023-05-14T00:08:46.522Z,1523.00
2023-05-14T00:09:46.532Z,1495.00
2023-05-14T00:10:46.558Z,1477.00
2023-05-14T00:11:46.572Z,1455.00
2023-05-14T00:12:46.576Z,1452.00
2023-05-14T00:13:46.605Z,1468.00
2023-05-14T00:14:46.628Z,1483.00
2023-05-14T00:15:46.641Z,1479.00
2023-05-14T00:16:46.648Z,1492.00
2023-05-14T00:17:46.707Z,1491.00
2023-05-14T00:18:46.650Z,1484.00
2023-05-14T00:19:46.639Z,1475.00
2023-05-14T00:20:46.630Z,1487.00
2023-05-14T00:21:46.656Z,1486.00
2023-05-14T00:22:46.638Z,1501.00
2023-05-14T00:23:46.652Z,1491.00
2023-05-14T00:24:46.686Z,1515.00
2023-05-14T00:25:46.704Z,1501.00
2023-05-14T00:26:46.709Z,1532.00
2023-05-14T00:27:46.728Z,1487.00
2023-05-14T00:28:46.716Z,1515.00
2023-05-14T00:29:46.733Z,1515.00
2023-05-14T00:30:46.765Z,1507.00
2023-05-14T00:31:46.898Z,1512.00
2023-05-14T00:32:46.907Z,1509.00
2023-05-14T00:33:46.882Z,1493.00
2023-05-14T00:34:46.887Z,1459.00
2023-05-14T00:35:46.907Z,1474.00
2023-05-14T00:36:46.902Z,1456.00
2023-05-14T00:37:46.944Z,1468.00
2023-05-14T00:38:46.965Z,1435.00
2023-05-14T00:39:46.995Z,1422.00
2023-05-14T00:40:47.003Z,1404.00
2023-05-14T00:41:47.035Z,1390.00
2023-05-14T00:42:47.058Z,1372.00
2023-05-14T00:43:47.095Z,1379.00
2023-05-14T00:44:47.127Z,1351.00
2023-05-14T00:45:47.123Z,1376.00
2023-05-14T00:46:47.180Z,1372.00
2023-05-14T00:47:47.171Z,1393.00
2023-05-14T00:48:47.190Z,1388.00
2023-05-14T00:49:47.201Z,1407.00
2023-05-14T00:50:47.242Z,1396.00
2023-05-14T00:51:47.262Z,1398.00
2023-05-14T00:52:47.285Z,1405.00
2023-05-14T00:53:47.338Z,1428.00
2023-05-14T00:54:47.325Z,1432.00
2023-05-14T00:55:47.327Z,1428.00
2023-05-14T00:56:47.338Z,1415.00
2023-05-14T00:57:47.358Z,1413.00
2023-05-14T00:58:47.407Z,1419.00
2023-05-14T00:59:47.388Z,1416.00
2023-05-14T01:00:47.507Z,1404.00
2023-05-14T01:01:47.450Z,1385.00
2023-05-14T01:02:47.516Z,1369.00
2023-05-14T01:03:47.503Z,1360.00
2023-05-14T01:04:47.463Z,1361.00
2023-05-14T01:05:47.463Z,1362.00
2023-05-14T01:06:47.509Z,1362.00
2023-05-14T01:07:47.519Z,1342.00
2023-05-14T01:08:47.551Z,1352.00
2023-05-14T01:09:47.553Z,1340.00
2023-05-14T01:10:47.562Z,1335.00
2023-05-14T01:11:47.553Z,1340.00
2023-05-14T01:12:47.570Z,1348.00
2023-05-14T01:13:47.567Z,1336.00
2023-05-14T01:14:47.597Z,1333.00
2023-05-14T01:15:47.553Z,1344.00
2023-05-14T01:16:47.626Z,1352.00
2023-05-14T01:17:47.584Z,1359.00
2023-05-14T01:18:47.658Z,1359.00
2023-05-14T01:19:47.568Z,1393.00
2023-05-14T01:20:47.583Z,1387.00
2023-05-14T01:21:47.557Z,1392.00
2023-05-14T01:22:47.592Z,1388.00
2023-05-14T01:23:47.567Z,1391.00
2023-05-14T01:24:47.587Z,1378.00
2023-05-14T01:25:47.606Z,1380.00
2023-05-14T01:26:47.610Z,1385.00
2023-05-14T01:27:47.604Z,1389.00
2023-05-14T01:28:47.585Z,1402.00
2023-05-14T01:29:47.597Z,1398.00
2023-05-14T01:30:47.601Z,1388.00
2023-05-14T01:31:47.634Z,1411.00
2023-05-14T01:32:47.683Z,1413.00
2023-05-14T01:33:47.593Z,1401.00
2023-05-14T01:34:47.593Z,1414.00
2023-05-14T01:35:47.589Z,1423.00
2023-05-14T01:36:47.596Z,1394.00
2023-05-14T01:37:47.595Z,1405.00
2023-05-14T01:38:47.569Z,1390.00
2023-05-14T01:39:47.575Z,1393.00
2023-05-14T01:40:47.591Z,1400.00
2023-05-14T01:41:47.572Z,1413.00
2023-05-14T01:42:47.630Z,1424.00
2023-05-14T01:43:47.555Z,1402.00
2023-05-14T01:44:47.552Z,1402.00
2023-05-14T01:45:47.620Z,1423.00
2023-05-14T01:46:47.532Z,1431.00
2023-05-14T01:47:47.577Z,1416.00
2023-05-14T01:48:47.530Z,1409.00
2023-05-14T01:49:47.549Z,1415.00
2023-05-14T01:50:47.548Z,1405.00
2023-05-14T01:51:47.516Z,1402.00
2023-05-14T01:52:47.537Z,1388.00
2023-05-14T01:53:47.536Z,1390.00
2023-05-14T01:54:47.530Z,1406.00
2023-05-14T01:55:47.534Z,1412.00
2023-05-14T01:56:47.506Z,1400.00
2023-05-14T01:57:47.512Z,1394.00
2023-05-14T01:58:47.498Z,1384.00
2023-05-14T01:59:47.490Z,1383.00
2023-05-14T02:00:47.508Z,1355.00
2023-05-14T02:01:47.537Z,1332.00
2023-05-14T02:02:47.527Z,1313.00
2023-05-14T02:03:47.575Z,1300.00
2023-05-14T02:04:47.461Z,1295.00
2023-05-14T02:05:47.465Z,1306.00
2023-05-14T02:06:47.461Z,1314.00
2023-05-14T02:07:47.448Z,1321.00
2023-05-14T02:08:47.457Z,1301.00
2023-05-14T02:09:47.466Z,1314.00
2023-05-14T02:10:47.458Z,1333.00
2023-05-14T02:11:47.455Z,1338.00
2023-05-14T02:12:47.483Z,1328.00
2023-05-14T02:13:47.449Z,1344.00
2023-05-14T02:14:47.458Z,1325.00
2023-05-14T02:15:47.457Z,1326.00
2023-05-14T02:16:47.439Z,1306.00
2023-05-14T02:17:47.475Z,1292.00
2023-05-14T02:18:47.481Z,1303.00
2023-05-14T02:19:47.416Z,1301.00
2023-05-14T02:20:47.438Z,1305.00
2023-05-14T02:21:47.426Z,1313.00
2023-05-14T02:22:47.403Z,1308.00
2023-05-14T02:23:47.424Z,1307.00
2023-05-14T02:24:47.413Z,1313.00
2023-05-14T02:25:47.413Z,1306.00
2023-05-14T02:26:47.412Z,1274.00
2023-05-14T02:27:47.397Z,1287.00
2023-05-14T02:28:47.395Z,1287.00
2023-05-14T02:29:47.381Z,1304.00
2023-05-14T02:30:47.381Z,1306.00
2023-05-14T02:31:47.476Z,1294.00
2023-05-14T02:32:47.475Z,1292.00
2023-05-14T02:33:47.395Z,1272.00
2023-05-14T02:34:47.391Z,1277.00
2023-05-14T02:35:47.368Z,1260.00
2023-05-14T02:36:47.366Z,1281.00
2023-05-14T02:37:47.363Z,1290.00
2023-05-14T02:38:47.365Z,1261.00
2023-05-14T02:39:47.371Z,1276.00
2023-05-14T02:40:47.383Z,1293.00
2023-05-14T02:41:47.368Z,1293.00
2023-05-14T02:42:47.385Z,1289.00
2023-05-14T02:43:47.360Z,1261.00
2023-05-14T02:44:47.357Z,1260.00
2023-05-14T02:45:47.400Z,1262.00
2023-05-14T02:46:47.407Z,1253.00
2023-05-14T02:47:47.406Z,1246.00
2023-05-14T02:48:47.367Z,1231.00
2023-05-14T02:49:47.375Z,1236.00
2023-05-14T02:50:47.368Z,1235.00
2023-05-14T02:51:47.386Z,1244.00
2023-05-14T02:52:47.374Z,1260.00
2023-05-14T02:53:47.392Z,1248.00
2023-05-14T02:54:47.402Z,1243.00
2023-05-14T02:55:47.403Z,1233.00
2023-05-14T02:56:47.403Z,1223.00
2023-05-14T02:57:47.399Z,1233.00
2023-05-14T02:58:47.384Z,1248.00
2023-05-14T02:59:47.414Z,1242.00
2023-05-14T03:00:47.445Z,1239.00
2023-05-14T03:01:47.448Z,1252.00
2023-05-14T03:02:47.529Z,1253.00
2023-05-14T03:03:47.429Z,1252.00
2023-05-14T03:04:47.401Z,1244.00
2023-05-14T03:05:47.422Z,1240.00
2023-05-14T03:06:47.431Z,1233.00
2023-05-14T03:07:47.437Z,1226.00
2023-05-14T03:08:47.412Z,1210.00
2023-05-14T03:09:47.424Z,1222.00
2023-05-14T03:10:47.412Z,1219.00
2023-05-14T03:11:47.463Z,1220.00
2023-05-14T03:12:47.530Z,1223.00
2023-05-14T03:13:47.572Z,1234.00
2023-05-14T03:14:47.618Z,1246.00
2023-05-14T03:15:47.657Z,1244.00
2023-05-14T03:16:47.773Z,1252.00
2023-05-14T03:17:47.750Z,1251.00
2023-05-14T03:18:47.734Z,1256.00
2023-05-14T03:19:47.734Z,1235.00
2023-05-14T03:20:47.754Z,1232.00
2023-05-14T03:21:47.722Z,1243.00
2023-05-14T03:22:47.725Z,1259.00
2023-05-14T03:23:47.736Z,1239.00
2023-05-14T03:24:47.725Z,1261.00
2023-05-14T03:25:47.744Z,1249.00
2023-05-14T03:26:47.737Z,1229.00
2023-05-14T03:27:47.721Z,1246.00
2023-05-14T03:28:47.720Z,1261.00
2023-05-14T03:29:47.731Z,1253.00
2023-05-14T03:30:47.799Z,1253.00
2023-05-14T03:31:47.732Z,1251.00
2023-05-14T03:32:47.746Z,1247.00
2023-05-14T03:33:47.741Z,1246.00
2023-05-14T03:34:47.726Z,1243.00
2023-05-14T03:35:47.740Z,1237.00
2023-05-14T03:36:47.728Z,1220.00
2023-05-14T03:37:47.719Z,1237.00
2023-05-14T03:38:47.730Z,1222.00
2023-05-14T03:39:47.723Z,1235.00
2023-05-14T03:40:47.703Z,1238.00
2023-05-14T03:41:47.707Z,1255.00
2023-05-14T03:42:47.685Z,1236.00
2023-05-14T03:43:47.713Z,1232.00
2023-05-14T03:44:47.701Z,1220.00
2023-05-14T03:45:47.697Z,1226.00
2023-05-14T03:46:47.702Z,1209.00
2023-05-14T03:47:47.841Z,1206.00
2023-05-14T03:48:47.688Z,1214.00
2023-05-14T03:49:47.686Z,1206.00
2023-05-14T03:50:47.685Z,1212.00
2023-05-14T03:51:47.695Z,1204.00
2023-05-14T03:52:47.697Z,1214.00
2023-05-14T03:53:47.690Z,1204.00
2023-05-14T03:54:47.686Z,1200.00
2023-05-14T03:55:47.696Z,1182.00
2023-05-14T03:56:47.675Z,1181.00
2023-05-14T03:57:47.676Z,1177.00
2023-05-14T03:58:47.662Z,1179.00
2023-05-14T03:59:47.694Z,1194.00
2023-05-14T04:00:47.694Z,1198.00
2023-05-14T04:01:47.693Z,1178.00
2023-05-14T04:02:47.823Z,1178.00
2023-05-14T04:03:47.855Z,1171.00
2023-05-14T04:04:47.753Z,1171.00
2023-05-14T04:05:47.693Z,1175.00
2023-05-14T04:06:47.674Z,1193.00
2023-05-14T04:07:47.675Z,1187.00
2023-05-14T04:08:47.668Z,1191.00
2023-05-14T04:09:47.686Z,1172.00
2023-05-14T04:10:47.669Z,1189.00
2023-05-14T04:11:47.675Z,1164.00
2023-05-14T04:12:47.680Z,1164.00
2023-05-14T04:13:47.676Z,1168.00
2023-05-14T04:14:47.663Z,1183.00
2023-05-14T04:15:47.684Z,1170.00
2023-05-14T04:16:47.705Z,1165.00
2023-05-14T04:17:47.735Z,1171.00
2023-05-14T04:18:47.767Z,1160.00
2023-05-14T04:19:47.689Z,1172.00
2023-05-14T04:20:47.683Z,1168.00
2023-05-14T04:21:47.698Z,1166.00
2023-05-14T04:22:47.697Z,1174.00
2023-05-14T04:23:47.698Z,1140.00
2023-05-14T04:24:47.699Z,1122.00
2023-05-14T04:25:47.714Z,1119.00
2023-05-14T04:26:47.717Z,1095.00
2023-05-14T04:27:47.736Z,1093.00
2023-05-14T04:28:47.800Z,1088.00
2023-05-14T04:29:47.857Z,1096.00
2023-05-14T04:30:47.889Z,1098.00
2023-05-14T04:31:47.996Z,1077.00
2023-05-14T04:32:48.034Z,1092.00
2023-05-14T04:33:48.041Z,1080.00
2023-05-14T04:34:48.108Z,1089.00
2023-05-14T04:35:48.178Z,1068.00
2023-05-14T04:36:48.243Z,1070.00
2023-05-14T04:37:48.276Z,1067.00
2023-05-14T04:38:48.313Z,1057.00
2023-05-14T04:39:48.382Z,1074.00
2023-05-14T04:40:48.453Z,1059.00
2023-05-14T04:41:48.484Z,1066.00
2023-05-14T04:42:48.490Z,1054.00
2023-05-14T04:43:48.482Z,1074.00
2023-05-14T04:44:48.492Z,1076.00
2023-05-14T04:45:48.524Z,1051.00
2023-05-14T04:46:48.508Z,1046.00
2023-05-14T04:47:48.557Z,1032.00
2023-05-14T04:48:48.495Z,1031.00
2023-05-14T04:49:48.564Z,1034.00
2023-05-14T04:50:48.514Z,1032.00
2023-05-14T04:51:48.518Z,1039.00
2023-05-14T04:52:48.522Z,1016.00
2023-05-14T04:53:48.525Z,1017.00
2023-05-14T04:54:48.550Z,1020.00
2023-05-14T04:55:48.530Z,1034.00
2023-05-14T04:56:48.517Z,1007.00
2023-05-14T04:57:48.523Z,1019.00
2023-05-14T04:58:48.566Z,1021.00
2023-05-14T04:59:48.572Z,1023.00
2023-05-14T05:00:48.581Z,1038.00
2023-05-14T05:01:48.638Z,1021.00
2023-05-14T05:02:48.628Z,1023.00
2023-05-14T05:03:48.642Z,994.00
2023-05-14T05:04:48.607Z,1009.00
2023-05-14T05:05:48.621Z,1010.00
2023-05-14T05:06:48.621Z,992.00
2023-05-14T05:07:48.601Z,992.00
2023-05-14T05:08:48.615Z,979.00
2023-05-14T05:09:48.626Z,998.00
2023-05-14T05:10:48.646Z,1002.00
2023-05-14T05:11:48.658Z,994.00
2023-05-14T05:12:48.662Z,1009.00
2023-05-14T05:13:48.670Z,1000.00
2023-05-14T05:14:48.671Z,975.00
2023-05-14T05:15:48.683Z,988.00
2023-05-14T05:16:48.669Z,993.00
2023-05-14T05:17:48.729Z,997.00
2023-05-14T05:18:48.702Z,993.00
2023-05-14T05:19:48.682Z,985.00
2023-05-14T05:20:48.690Z,970.00
2023-05-14T05:21:48.710Z,946.00
2023-05-14T05:22:48.707Z,956.00
2023-05-14T05:23:48.713Z,971.00
2023-05-14T05:24:50.098Z,949.00
2023-05-14T05:25:48.738Z,964.00
2023-05-14T05:26:48.765Z,982.00
2023-05-14T05:27:48.744Z,945.00
2023-05-14T05:28:48.766Z,974.00
2023-05-14T05:29:48.778Z,964.00
2023-05-14T05:30:48.792Z,955.00
2023-05-14T05:31:48.905Z,956.00
2023-05-14T05:32:48.827Z,951.00
2023-05-14T05:33:48.789Z,933.00
2023-05-14T05:34:48.796Z,926.00
2023-05-14T05:35:48.792Z,917.00
2023-05-14T05:36:48.812Z,907.00
2023-05-14T05:37:48.803Z,899.00
2023-05-14T05:38:48.817Z,869.00
2023-05-14T05:39:48.828Z,870.00
2023-05-14T05:40:48.833Z,858.00
2023-05-14T05:41:48.882Z,870.00
2023-05-14T05:42:48.926Z,849.00
2023-05-14T05:43:48.972Z,882.00
2023-05-14T05:44:49.037Z,865.00
2023-05-14T05:45:49.102Z,869.00
2023-05-14T05:46:49.219Z,852.00
2023-05-14T05:47:49.272Z,850.00
2023-05-14T05:48:49.259Z,853.00
2023-05-14T05:49:49.311Z,859.00
2023-05-14T05:50:49.369Z,863.00
2023-05-14T05:51:49.423Z,869.00
2023-05-14T05:52:49.492Z,846.00
2023-05-14T05:53:49.529Z,860.00
2023-05-14T05:54:49.594Z,861.00
2023-05-14T05:55:49.594Z,883.00
2023-05-14T05:56:49.622Z,861.00
2023-05-14T05:57:49.592Z,856.00
2023-05-14T05:58:49.617Z,824.00
2023-05-14T05:59:49.620Z,836.00
2023-05-14T06:00:49.635Z,832.00
2023-05-14T06:01:49.688Z,836.00
2023-05-14T06:02:49.712Z,840.00
2023-05-14T06:03:49.648Z,837.00
2023-05-14T06:04:49.644Z,845.00
2023-05-14T06:05:49.741Z,867.00
2023-05-14T06:06:49.678Z,837.00
2023-05-14T06:07:49.646Z,834.00
2023-05-14T06:08:49.659Z,852.00
2023-05-14T06:09:49.669Z,826.00
2023-05-14T06:10:49.681Z,837.00
2023-05-14T06:11:49.691Z,808.00
2023-05-14T06:12:49.675Z,797.00
2023-05-14T06:13:49.683Z,785.00
2023-05-14T06:14:49.696Z,746.00
2023-05-14T06:15:49.691Z,796.00
2023-05-14T06:16:49.767Z,783.00
2023-05-14T06:17:49.723Z,787.00
2023-05-14T06:18:49.723Z,746.00
2023-05-14T06:19:49.689Z,713.00
2023-05-14T06:20:49.694Z,697.00
2023-05-14T06:21:49.704Z,683.00
2023-05-14T06:22:49.691Z,687.00
2023-05-14T06:23:49.705Z,704.00
2023-05-14T06:24:49.689Z,701.00
2023-05-14T06:25:50.666Z,699.00
2023-05-14T06:26:50.242Z,715.00
2023-05-14T06:27:49.670Z,691.00
2023-05-14T06:28:49.661Z,701.00
2023-05-14T06:29:49.677Z,722.00
2023-05-14T06:30:49.680Z,717.00
2023-05-14T06:31:49.702Z,712.00
2023-05-14T06:32:49.749Z,693.00
2023-05-14T06:33:49.669Z,662.00
2023-05-14T06:34:49.674Z,675.00
2023-05-14T06:35:49.653Z,685.00
2023-05-14T06:36:49.660Z,700.00
2023-05-14T06:37:49.663Z,694.00
2023-05-14T06:38:49.645Z,729.00
2023-05-14T06:39:49.665Z,696.00
2023-05-14T06:40:49.644Z,691.00
2023-05-14T06:41:49.634Z,689.00
2023-05-14T06:42:49.658Z,669.00
2023-05-14T06:43:49.632Z,670.00
2023-05-14T06:44:49.651Z,666.00
2023-05-14T06:45:49.648Z,677.00
2023-05-14T06:46:49.665Z,675.00
2023-05-14T06:47:49.647Z,663.00
2023-05-14T06:48:49.675Z,660.00
2023-05-14T06:49:49.633Z,655.00
2023-05-14T06:50:49.628Z,651.00
2023-05-14T06:51:49.617Z,655.00
2023-05-14T06:52:49.608Z,656.00
2023-05-14T06:53:49.612Z,662.00
2023-05-14T06:54:49.596Z,648.00
2023-05-14T06:55:49.627Z,643.00
2023-05-14T06:56:49.656Z,643.00
2023-05-14T06:57:49.661Z,639.00
2023-05-14T06:58:49.699Z,648.00
2023-05-14T06:59:49.759Z,637.00
2023-05-14T07:00:49.778Z,637.00
2023-05-14T07:01:49.929Z,633.00
2023-05-14T07:02:49.873Z,625.00
2023-05-14T07:03:49.916Z,627.00
2023-05-14T07:04:49.985Z,631.00
2023-05-14T07:05:49.979Z,640.00
2023-05-14T07:06:50.000Z,632.00
2023-05-14T07:07:50.055Z,634.00
2023-05-14T07:08:50.062Z,633.00
2023-05-14T07:09:50.085Z,647.00
2023-05-14T07:10:50.115Z,636.00
2023-05-14T07:11:50.140Z,641.00
2023-05-14T07:12:50.166Z,638.00
2023-05-14T07:13:50.195Z,631.00
2023-05-14T07:14:50.236Z,635.00
2023-05-14T07:15:50.250Z,637.00
2023-05-14T07:16:50.328Z,639.00
2023-05-14T07:17:50.416Z,639.00
2023-05-14T07:18:50.445Z,635.00
2023-05-14T07:19:50.446Z,638.00
2023-05-14T07:20:50.474Z,631.00
2023-05-14T07:21:50.522Z,634.00
2023-05-14T07:22:50.535Z,629.00
2023-05-14T07:23:50.557Z,629.00
2023-05-14T07:24:50.561Z,626.00
2023-05-14T07:25:50.589Z,625.00
2023-05-14T07:26:50.610Z,619.00
2023-05-14T07:27:50.652Z,622.00
2023-05-14T07:28:50.664Z,604.00
2023-05-14T07:29:50.683Z,618.00
2023-05-14T07:30:50.720Z,598.00
2023-05-14T07:31:50.759Z,596.00
2023-05-14T07:32:50.797Z,603.00
2023-05-14T07:33:50.846Z,602.00
2023-05-14T07:34:50.895Z,604.00
2023-05-14T07:35:50.956Z,591.00
2023-05-14T07:36:50.997Z,605.00
2023-05-14T07:37:51.086Z,602.00
2023-05-14T07:38:51.100Z,598.00
2023-05-14T07:39:51.174Z,602.00
2023-05-14T07:40:51.218Z,597.00
2023-05-14T07:41:51.286Z,603.00
2023-05-14T07:42:51.341Z,608.00
2023-05-14T07:43:51.402Z,594.00
2023-05-14T07:44:51.459Z,587.00
2023-05-14T07:45:51.499Z,602.00
2023-05-14T07:46:51.582Z,592.00
2023-05-14T07:47:51.741Z,593.00
2023-05-14T07:48:51.634Z,595.00
2023-05-14T07:49:51.691Z,595.00
2023-05-14T07:50:51.757Z,613.00
2023-05-14T07:51:51.804Z,603.00
2023-05-14T07:52:51.837Z,604.00
2023-05-14T07:53:51.902Z,610.00
2023-05-14T07:54:51.967Z,616.00
2023-05-14T07:55:51.968Z,615.00
2023-05-14T07:56:52.027Z,636.00
2023-05-14T07:57:52.063Z,650.00
2023-05-14T07:58:52.118Z,678.00
2023-05-14T07:59:52.155Z,711.00
2023-05-14T08:00:52.210Z,722.00
2023-05-14T08:01:52.269Z,675.00
2023-05-14T08:02:52.643Z,671.00
2023-05-14T08:03:52.504Z,663.00
2023-05-14T08:04:52.419Z,665.00
2023-05-14T08:05:52.476Z,664.00
2023-05-14T08:06:52.462Z,657.00
2023-05-14T08:07:52.516Z,665.00
2023-05-14T08:08:52.532Z,655.00
2023-05-14T08:09:52.542Z,665.00
2023-05-14T08:10:52.564Z,656.00
2023-05-14T08:11:52.584Z,659.00
2023-05-14T08:12:52.642Z,645.00
2023-05-14T08:13:52.680Z,631.00
2023-05-14T08:14:52.720Z,634.00
2023-05-14T08:15:52.759Z,631.00
2023-05-14T08:16:52.833Z,630.00
2023-05-14T08:17:52.868Z,634.00
2023-05-14T08:18:52.849Z,646.00
2023-05-14T08:19:52.873Z,643.00
2023-05-14T08:20:52.891Z,653.00
2023-05-14T08:21:52.929Z,658.00
2023-05-14T08:22:52.948Z,651.00
2023-05-14T08:23:52.991Z,657.00
2023-05-14T08:24:52.995Z,666.00
2023-05-14T08:25:52.991Z,675.00
2023-05-14T08:26:52.987Z,685.00
2023-05-14T08:27:53.008Z,696.00
2023-05-14T08:28:53.027Z,691.00
2023-05-14T08:29:53.052Z,719.00
2023-05-14T08:30:53.061Z,721.00
2023-05-14T08:31:53.075Z,721.00
2023-05-14T08:32:53.173Z,749.00
2023-05-14T08:33:53.143Z,734.00
2023-05-14T08:34:53.150Z,769.00
2023-05-14T08:35:53.165Z,777.00
2023-05-14T08:36:53.170Z,792.00
2023-05-14T08:37:53.180Z,809.00
2023-05-14T08:38:53.176Z,842.00
2023-05-14T08:39:53.189Z,835.00
2023-05-14T08:40:53.196Z,816.00
2023-05-14T08:41:53.235Z,833.00
2023-05-14T08:42:53.224Z,833.00
2023-05-14T08:43:53.247Z,821.00
2023-05-14T08:44:53.268Z,824.00
2023-05-14T08:45:53.252Z,839.00
2023-05-14T08:46:53.289Z,833.00
2023-05-14T08:47:53.381Z,794.00
2023-05-14T08:48:53.317Z,831.00
2023-05-14T08:49:53.316Z,825.00
2023-05-14T08:50:53.317Z,828.00
2023-05-14T08:51:53.361Z,827.00
2023-05-14T08:52:53.348Z,806.00
2023-05-14T08:53:53.341Z,835.00
2023-05-14T08:54:53.346Z,850.00
2023-05-14T08:55:53.346Z,833.00
2023-05-14T08:56:53.391Z,819.00
2023-05-14T08:57:53.349Z,784.00
2023-05-14T08:58:53.357Z,793.00
2023-05-14T08:59:53.375Z,765.00
2023-05-14T09:00:53.383Z,763.00
2023-05-14T09:01:53.433Z,768.00
2023-05-14T09:02:53.458Z,748.00
2023-05-14T09:03:53.450Z,754.00
2023-05-14T09:04:53.443Z,753.00
2023-05-14T09:05:53.435Z,766.00
2023-05-14T09:06:53.470Z,767.00
2023-05-14T09:07:53.456Z,750.00
2023-05-14T09:08:53.460Z,735.00
2023-05-14T09:09:53.464Z,762.00
2023-05-14T09:10:53.466Z,751.00
2023-05-14T09:11:53.480Z,756.00
2023-05-14T09:12:53.458Z,770.00
2023-05-14T09:13:53.470Z,825.00
2023-05-14T09:14:53.458Z,776.00
2023-05-14T09:15:53.498Z,771.00
2023-05-14T09:16:53.514Z,817.00
2023-05-14T09:17:53.548Z,844.00
2023-05-14T09:18:53.505Z,869.00
2023-05-14T09:19:53.479Z,889.00
2023-05-14T09:20:53.469Z,950.00
2023-05-14T09:21:53.485Z,966.00
2023-05-14T09:22:53.487Z,993.00
2023-05-14T09:23:53.496Z,997.00
2023-05-14T09:24:53.517Z,932.00
2023-05-14T09:25:53.547Z,936.00
2023-05-14T09:26:53.573Z,947.00
2023-05-14T09:27:53.609Z,956.00
2023-05-14T09:28:53.651Z,960.00
2023-05-14T09:29:53.709Z,923.00
2023-05-14T09:30:53.752Z,961.00
2023-05-14T09:31:53.853Z,1024.00
2023-05-14T09:32:53.968Z,982.00
2023-05-14T09:33:53.942Z,934.00
2023-05-14T09:34:54.001Z,993.00
2023-05-14T09:35:54.050Z,1013.00
2023-05-14T09:36:54.181Z,1016.00
2023-05-14T09:37:54.183Z,998.00
2023-05-14T09:38:54.218Z,992.00
2023-05-14T09:39:54.258Z,944.00
2023-05-14T09:40:54.319Z,916.00
2023-05-14T09:41:54.392Z,888.00
2023-05-14T09:42:54.491Z,871.00
2023-05-14T09:43:54.523Z,877.00
2023-05-14T09:44:54.580Z,890.00
2023-05-14T09:45:54.649Z,869.00
2023-05-14T09:46:54.802Z,890.00
2023-05-14T09:47:54.938Z,907.00
2023-05-14T09:48:54.846Z,846.00
2023-05-14T09:49:54.886Z,813.00
2023-05-14T09:50:54.967Z,866.00
2023-05-14T09:51:55.042Z,843.00
2023-05-14T09:52:55.077Z,846.00
2023-05-14T09:53:55.110Z,878.00
2023-05-14T09:54:55.181Z,902.00
2023-05-14T09:55:55.231Z,952.00
2023-05-14T09:56:55.944Z,919.00
2023-05-14T09:57:55.366Z,902.00
2023-05-14T09:58:55.379Z,860.00
2023-05-14T09:59:55.428Z,913.00
2023-05-14T10:00:55.511Z,878.00
2023-05-14T10:01:55.519Z,908.00
2023-05-14T10:02:55.602Z,923.00
2023-05-14T10:03:55.653Z,929.00
2023-05-14T10:04:55.667Z,948.00
2023-05-14T10:05:55.699Z,919.00
2023-05-14T10:06:55.768Z,889.00
2023-05-14T10:07:55.801Z,939.00
2023-05-14T10:08:55.846Z,938.00
2023-05-14T10:09:57.619Z,941.00
2023-05-14T10:10:55.909Z,923.00
2023-05-14T10:11:55.891Z,932.00
2023-05-14T10:12:55.888Z,869.00
2023-05-14T10:13:55.882Z,850.00
2023-05-14T10:14:55.897Z,869.00
2023-05-14T10:15:55.856Z,824.00
2023-05-14T10:16:55.894Z,821.00
2023-05-14T10:17:55.897Z,878.00
2023-05-14T10:18:57.389Z,872.00
2023-05-14T10:19:55.855Z,876.00
2023-05-14T10:20:55.848Z,847.00
2023-05-14T10:21:55.825Z,883.00
2023-05-14T10:22:55.836Z,862.00
2023-05-14T10:23:55.793Z,844.00
2023-05-14T10:24:55.816Z,872.00
2023-05-14T10:25:55.810Z,856.00
2023-05-14T10:26:55.810Z,843.00
2023-05-14T10:27:55.780Z,866.00
2023-05-14T10:28:55.814Z,894.00
2023-05-14T10:29:55.900Z,849.00
2023-05-14T10:30:55.995Z,828.00
2023-05-14T10:31:56.017Z,815.00
2023-05-14T10:32:56.088Z,774.00
2023-05-14T10:33:57.516Z,756.00
2023-05-14T10:34:56.104Z,754.00
2023-05-14T10:35:56.092Z,837.00
2023-05-14T10:36:56.091Z,799.00
2023-05-14T10:37:56.101Z,784.00
2023-05-14T10:38:56.107Z,778.00
2023-05-14T10:39:56.096Z,772.00
2023-05-14T10:40:56.098Z,790.00
2023-05-14T10:41:56.079Z,823.00
2023-05-14T10:42:56.063Z,849.00
2023-05-14T10:43:56.043Z,824.00
2023-05-14T10:44:56.070Z,789.00
2023-05-14T10:45:56.048Z,776.00
2023-05-14T10:46:56.145Z,733.00
2023-05-14T10:47:56.067Z,756.00
2023-05-14T10:48:56.026Z,725.00
2023-05-14T10:49:56.006Z,740.00
2023-05-14T10:50:56.036Z,758.00
2023-05-14T10:51:55.993Z,793.00
2023-05-14T10:52:55.989Z,866.00
2023-05-14T10:53:55.982Z,826.00
2023-05-14T10:54:55.988Z,862.00
2023-05-14T10:55:55.967Z,816.00
2023-05-14T10:56:55.958Z,861.00
2023-05-14T10:57:55.956Z,840.00
2023-05-14T10:58:55.954Z,836.00
2023-05-14T10:59:55.949Z,829.00
2023-05-14T11:00:55.939Z,845.00
2023-05-14T11:01:55.952Z,826.00
2023-05-14T11:02:56.071Z,847.00
2023-05-14T11:03:56.088Z,787.00
2023-05-14T11:04:55.927Z,783.00
2023-05-14T11:05:55.901Z,784.00
2023-05-14T11:06:55.893Z,766.00
2023-05-14T11:07:55.930Z,731.00
2023-05-14T11:08:55.898Z,743.00
2023-05-14T11:09:55.883Z,771.00
2023-05-14T11:10:55.867Z,788.00
2023-05-14T11:11:55.887Z,750.00
2023-05-14T11:12:55.879Z,762.00
2023-05-14T11:13:55.861Z,741.00
2023-05-14T11:14:55.862Z,784.00
2023-05-14T11:15:55.941Z,759.00
2023-05-14T11:16:56.033Z,706.00
2023-05-14T11:17:56.132Z,766.00
2023-05-14T11:18:56.155Z,841.00
2023-05-14T11:19:56.181Z,814.00
2023-05-14T11:20:56.261Z,822.00
2023-05-14T11:21:56.311Z,834.00
2023-05-14T11:22:56.394Z,792.00
2023-05-14T11:23:56.447Z,872.00
2023-05-14T11:24:56.512Z,857.00
2023-05-14T11:25:56.591Z,863.00
2023-05-14T11:26:56.612Z,790.00
2023-05-14T11:27:56.696Z,807.00
2023-05-14T11:28:56.754Z,849.00
2023-05-14T11:29:56.818Z,802.00
2023-05-14T11:30:56.862Z,773.00
2023-05-14T11:31:56.969Z,787.00
2023-05-14T11:32:57.355Z,783.00
2023-05-14T11:33:57.049Z,793.00
2023-05-14T11:34:57.116Z,725.00
2023-05-14T11:35:57.174Z,703.00
2023-05-14T11:36:57.246Z,751.00
2023-05-14T11:37:57.280Z,736.00
2023-05-14T11:38:57.372Z,703.00
2023-05-14T11:39:57.397Z,721.00
2023-05-14T11:40:57.429Z,707.00
2023-05-14T11:41:57.486Z,688.00
2023-05-14T11:42:57.513Z,714.00
2023-05-14T11:43:57.559Z,724.00
2023-05-14T11:44:57.639Z,727.00
2023-05-14T11:45:57.757Z,725.00
2023-05-14T11:46:57.705Z,733.00
2023-05-14T11:47:57.810Z,769.00
2023-05-14T11:48:57.778Z,760.00
2023-05-14T11:49:57.787Z,745.00
2023-05-14T11:50:57.820Z,703.00
2023-05-14T11:51:57.855Z,717.00
2023-05-14T11:52:57.895Z,700.00
2023-05-14T11:53:57.940Z,720.00
2023-05-14T11:54:57.962Z,767.00
2023-05-14T11:55:58.099Z,782.00
2023-05-14T11:56:58.056Z,766.00
2023-05-14T11:57:58.051Z,762.00
2023-05-14T11:58:58.076Z,697.00
2023-05-14T11:59:58.098Z,736.00
2023-05-14T12:00:58.065Z,698.00
2023-05-14T12:01:58.077Z,697.00
2023-05-14T12:02:58.151Z,705.00
2023-05-14T12:03:58.183Z,654.00
2023-05-14T12:04:58.041Z,685.00
2023-05-14T12:05:58.056Z,708.00
2023-05-14T12:06:58.044Z,715.00
2023-05-14T12:07:58.035Z,738.00
2023-05-14T12:08:58.026Z,712.00
2023-05-14T12:09:58.016Z,753.00
2023-05-14T12:10:58.022Z,666.00
2023-05-14T12:11:58.028Z,698.00
2023-05-14T12:12:58.015Z,709.00
2023-05-14T12:13:58.027Z,652.00
2023-05-14T12:14:58.009Z,690.00
2023-05-14T12:15:58.061Z,691.00
2023-05-14T12:16:58.011Z,712.00
2023-05-14T12:17:58.057Z,728.00
2023-05-14T12:18:58.104Z,728.00